createdAt,value
2023-04-23T00:00:43.678Z,100465.22
2023-04-23T00:03:14.923Z,100460.56
2023-04-23T00:05:44.676Z,100457.16
2023-04-23T00:08:12.703Z,100458.00
2023-04-23T00:10:40.165Z,100451.75
2023-04-23T00:13:07.889Z,100449.84
2023-04-23T00:15:35.672Z,100452.53
2023-04-23T00:18:03.086Z,100457.28
2023-04-23T00:20:30.466Z,100441.53
2023-04-23T00:22:57.820Z,100451.38
2023-04-23T00:25:25.191Z,100438.66
2023-04-23T00:27:52.543Z,100460.69
2023-04-23T00:30:19.938Z,100441.91
2023-04-23T00:32:47.811Z,100445.22
2023-04-23T00:35:15.285Z,100434.94
2023-04-23T00:37:42.623Z,100438.00
2023-04-23T00:40:11.646Z,100437.00
2023-04-23T00:42:40.039Z,100438.88
2023-04-23T00:45:12.371Z,100442.91
2023-04-23T00:47:40.881Z,100442.47
2023-04-23T00:50:08.678Z,100441.75
2023-04-23T00:52:36.104Z,100444.16
2023-04-23T00:55:03.581Z,100436.19
2023-04-23T00:57:31.066Z,100439.41
2023-04-23T00:59:59.263Z,100431.53
2023-04-23T01:02:28.635Z,100436.09
2023-04-23T01:04:56.763Z,100432.47
2023-04-23T01:07:24.337Z,100435.44
2023-04-23T01:09:51.771Z,100424.97
2023-04-23T01:12:19.231Z,100436.31
2023-04-23T01:14:46.962Z,100429.81
2023-04-23T01:17:14.479Z,100434.31
2023-04-23T01:19:42.110Z,100433.28
2023-04-23T01:22:12.398Z,100435.59
2023-04-23T01:24:41.412Z,100425.75
2023-04-23T01:27:10.184Z,100432.19
2023-04-23T01:29:38.635Z,100424.53
2023-04-23T01:32:08.006Z,100417.91
2023-04-23T01:34:39.407Z,100430.97
2023-04-23T01:37:07.684Z,100425.41
2023-04-23T01:39:37.215Z,100428.16
2023-04-23T01:42:07.172Z,100419.41
2023-04-23T01:44:34.647Z,100419.50
2023-04-23T01:47:02.359Z,100438.13
2023-04-23T01:49:32.402Z,100431.28
2023-04-23T01:51:59.734Z,100433.94
2023-04-23T01:54:27.071Z,100436.88
2023-04-23T01:56:55.833Z,100432.91
2023-04-23T01:59:23.579Z,100428.75
2023-04-23T02:01:51.103Z,100433.41
2023-04-23T02:04:19.154Z,100423.75
2023-04-23T02:06:49.817Z,100433.50
2023-04-23T02:09:17.221Z,100431.09
2023-04-23T02:11:44.611Z,100423.47
2023-04-23T02:14:12.174Z,100428.47
2023-04-23T02:16:39.893Z,100430.63
2023-04-23T02:19:07.218Z,100428.19
2023-04-23T02:21:34.549Z,100425.34
2023-04-23T02:24:01.867Z,100419.66
2023-04-23T02:26:29.776Z,100413.69
2023-04-23T02:28:57.046Z,100414.84
2023-04-23T02:31:24.512Z,100422.53
2023-04-23T02:33:52.049Z,100425.97
2023-04-23T02:36:19.396Z,100418.56
2023-04-23T02:38:48.577Z,100414.06
2023-04-23T02:41:15.931Z,100414.72
2023-04-23T02:43:43.234Z,100411.31
2023-04-23T02:46:10.700Z,100414.50
2023-04-23T02:48:41.001Z,100416.31
2023-04-23T02:51:11.795Z,100415.09
2023-04-23T02:53:39.160Z,100407.19
2023-04-23T02:56:07.369Z,100410.94
2023-04-23T02:58:35.652Z,100404.88
2023-04-23T03:01:03.760Z,100412.75
2023-04-23T03:03:34.882Z,100403.22
2023-04-23T03:06:05.058Z,100412.75
2023-04-23T03:08:32.574Z,100417.31
2023-04-23T03:11:00.763Z,100410.06
2023-04-23T03:13:28.177Z,100405.59
2023-04-23T03:15:56.005Z,100412.16
2023-04-23T03:18:23.431Z,100410.41
2023-04-23T03:20:53.469Z,100404.63
2023-04-23T03:23:20.813Z,100402.16
2023-04-23T03:25:48.868Z,100402.25
2023-04-23T03:28:16.312Z,100408.25
2023-04-23T03:30:44.937Z,100403.56
2023-04-23T03:33:12.262Z,100406.09
2023-04-23T03:35:39.618Z,100408.38
2023-04-23T03:38:12.724Z,100409.25
2023-04-23T03:40:41.733Z,100417.88
2023-04-23T03:43:10.451Z,100407.19
2023-04-23T03:46:07.020Z,100403.47
2023-04-23T03:48:38.651Z,100409.78
2023-04-23T03:51:11.128Z,100422.78
2023-04-23T03:53:47.581Z,100408.66
2023-04-23T03:56:33.467Z,100410.28
2023-04-23T03:59:26.937Z,100417.22
2023-04-23T04:01:58.484Z,100407.38
2023-04-23T04:04:26.955Z,100412.72
2023-04-23T04:06:56.775Z,100404.16
2023-04-23T04:09:28.523Z,100404.09
2023-04-23T04:11:56.090Z,100402.88
2023-04-23T04:14:23.602Z,100397.34
2023-04-23T04:16:50.995Z,100393.72
2023-04-23T04:19:18.286Z,100411.66
2023-04-23T04:21:45.718Z,100415.22
2023-04-23T04:24:13.106Z,100412.88
2023-04-23T04:26:41.107Z,100414.75
2023-04-23T04:29:10.507Z,100416.50
2023-04-23T04:31:37.958Z,100421.84
2023-04-23T04:34:07.218Z,100415.31
2023-04-23T04:36:35.663Z,100421.56
2023-04-23T04:39:03.601Z,100413.66
2023-04-23T04:41:30.936Z,100410.38
2023-04-23T04:43:58.608Z,100423.78
2023-04-23T04:46:32.027Z,100414.81
2023-04-23T04:48:59.427Z,100417.63
2023-04-23T04:51:28.518Z,100417.78
2023-04-23T04:53:56.643Z,100423.94
2023-04-23T04:56:25.730Z,100422.91
2023-04-23T04:58:53.132Z,100424.63
2023-04-23T05:01:23.189Z,100422.72
2023-04-23T05:03:50.877Z,100422.38
2023-04-23T05:06:18.284Z,100430.25
2023-04-23T05:08:48.238Z,100433.81
2023-04-23T05:11:20.035Z,100439.94
2023-04-23T05:13:48.163Z,100437.91
2023-04-23T05:16:15.933Z,100440.50
2023-04-23T05:18:43.280Z,100438.63
2023-04-23T05:21:10.598Z,100438.91
2023-04-23T05:23:37.962Z,100437.81
2023-04-23T05:26:05.307Z,100446.88
2023-04-23T05:28:32.643Z,100445.28
2023-04-23T05:30:59.958Z,100443.03
2023-04-23T05:33:33.513Z,100444.41
2023-04-23T05:36:08.294Z,100437.38
2023-04-23T05:38:35.779Z,100439.81
2023-04-23T05:41:03.072Z,100435.94
2023-04-23T05:43:30.518Z,100439.63
2023-04-23T05:45:57.900Z,100439.78
2023-04-23T05:48:25.233Z,100438.94
2023-04-23T05:50:52.924Z,100446.59
2023-04-23T05:53:20.384Z,100441.13
2023-04-23T05:55:47.684Z,100446.75
2023-04-23T05:58:15.781Z,100446.22
2023-04-23T06:00:43.277Z,100455.47
2023-04-23T06:03:10.704Z,100456.44
2023-04-23T06:05:38.271Z,100452.66
2023-04-23T06:08:05.801Z,100451.16
2023-04-23T06:10:33.141Z,100450.28
2023-04-23T06:13:00.427Z,100445.50
2023-04-23T06:15:27.811Z,100445.00
2023-04-23T06:17:55.240Z,100449.13
2023-04-23T06:20:22.651Z,100441.16
2023-04-23T06:22:55.327Z,100443.75
2023-04-23T06:25:22.738Z,100447.56
2023-04-23T06:27:50.036Z,100446.34
2023-04-23T06:30:21.586Z,100450.00
2023-04-23T06:32:50.433Z,100452.75
2023-04-23T06:35:17.773Z,100448.72
2023-04-23T06:37:45.059Z,100447.59
2023-04-23T06:40:13.116Z,100451.88
2023-04-23T06:42:40.553Z,100446.97
2023-04-23T06:45:18.506Z,100452.16
2023-04-23T06:47:45.976Z,100461.41
2023-04-23T06:50:13.329Z,100459.72
2023-04-23T06:52:40.908Z,100455.16
2023-04-23T06:55:08.909Z,100464.22
2023-04-23T06:57:36.295Z,100459.78
2023-04-23T07:00:06.727Z,100451.75
2023-04-23T07:02:38.298Z,100453.47
2023-04-23T07:05:05.934Z,100451.06
2023-04-23T07:07:34.117Z,100454.94
2023-04-23T07:10:01.421Z,100456.84
2023-04-23T07:12:29.032Z,100452.44
2023-04-23T07:14:56.781Z,100461.97
2023-04-23T07:17:24.113Z,100455.19
2023-04-23T07:19:51.412Z,100449.81
2023-04-23T07:22:18.801Z,100457.28
2023-04-23T07:24:46.149Z,100457.03
2023-04-23T07:27:13.507Z,100454.69
2023-04-23T07:29:40.851Z,100457.50
2023-04-23T07:32:08.225Z,100458.28
2023-04-23T07:34:38.738Z,100454.63
2023-04-23T07:37:06.404Z,100451.50
2023-04-23T07:39:34.422Z,100442.91
2023-04-23T07:42:04.629Z,100453.50
2023-04-23T07:44:31.973Z,100447.97
2023-04-23T07:46:59.296Z,100455.28
2023-04-23T07:49:26.604Z,100450.47
2023-04-23T07:51:53.980Z,100446.31
2023-04-23T07:54:21.305Z,100448.25
2023-04-23T07:56:48.582Z,100439.22
2023-04-23T07:59:15.987Z,100446.84
2023-04-23T08:01:43.501Z,100445.41
2023-04-23T08:04:12.408Z,100449.06
2023-04-23T08:06:39.931Z,100435.78
2023-04-23T08:09:07.342Z,100455.22
2023-04-23T08:11:35.006Z,100450.72
2023-04-23T08:14:02.345Z,100452.44
2023-04-23T08:16:30.924Z,100446.38
2023-04-23T08:19:05.531Z,100448.56
2023-04-23T08:21:34.053Z,100446.66
2023-04-23T08:24:03.142Z,100450.38
2023-04-23T08:26:31.512Z,100447.09
2023-04-23T08:29:00.875Z,100450.25
2023-04-23T08:31:28.597Z,100445.22
2023-04-23T08:33:56.582Z,100438.44
2023-04-23T08:36:24.642Z,100444.13
2023-04-23T08:38:52.039Z,100443.03
2023-04-23T08:41:23.319Z,100438.56
2023-04-23T08:43:58.177Z,100448.53
2023-04-23T08:46:28.855Z,100439.44
2023-04-23T08:48:59.205Z,100446.94
2023-04-23T08:51:30.461Z,100449.38
2023-04-23T08:53:59.590Z,100437.78
2023-04-23T08:56:27.459Z,100442.53
2023-04-23T08:58:56.982Z,100436.28
2023-04-23T09:01:24.762Z,100430.81
2023-04-23T09:03:53.497Z,100446.06
2023-04-23T09:06:21.827Z,100435.78
2023-04-23T09:08:49.125Z,100438.13
2023-04-23T09:11:17.552Z,100431.25
2023-04-23T09:13:45.240Z,100423.31
2023-04-23T09:16:13.699Z,100421.94
2023-04-23T09:18:42.320Z,100431.06
2023-04-23T09:21:10.743Z,100426.38
2023-04-23T09:23:41.317Z,100418.19
2023-04-23T09:26:08.609Z,100416.56
2023-04-23T09:28:36.943Z,100408.13
2023-04-23T09:31:07.842Z,100411.47
2023-04-23T09:33:35.724Z,100405.41
2023-04-23T09:36:11.864Z,100409.09
2023-04-23T09:38:43.538Z,100400.00
2023-04-23T09:41:31.531Z,100402.47
2023-04-23T09:43:59.189Z,100399.38
2023-04-23T09:46:37.391Z,100393.84
2023-04-23T09:49:23.871Z,100407.16
2023-04-23T09:51:51.396Z,100395.84
2023-04-23T09:54:22.693Z,100402.28
2023-04-23T09:56:53.942Z,100390.97
2023-04-23T09:59:39.510Z,100400.28
2023-04-23T10:02:13.524Z,100404.88
2023-04-23T10:04:42.504Z,100406.41
2023-04-23T10:07:20.385Z,100403.22
2023-04-23T10:09:48.442Z,100412.97
2023-04-23T10:14:50.548Z,100403.50
2023-04-23T10:17:18.117Z,100390.72
2023-04-23T10:19:45.958Z,100387.25
2023-04-23T10:22:19.461Z,100395.91
2023-04-23T10:24:52.069Z,100396.44
2023-04-23T10:29:53.758Z,100396.19
2023-04-23T10:32:21.701Z,100392.78
2023-04-23T10:34:49.374Z,100388.66
2023-04-23T10:37:19.566Z,100384.09
2023-04-23T10:39:53.803Z,100387.84
2023-04-23T10:42:22.862Z,100390.09
2023-04-23T10:44:59.418Z,100392.91
2023-04-23T10:47:32.340Z,100381.75
2023-04-23T10:50:19.006Z,100386.34
2023-04-23T10:52:51.424Z,100374.09
2023-04-23T10:55:24.029Z,100371.38
2023-04-23T10:58:02.240Z,100372.03
2023-04-23T11:00:45.643Z,100378.28
2023-04-23T11:03:43.065Z,100371.31
2023-04-23T11:06:20.241Z,100362.88
2023-04-23T11:08:55.213Z,100366.56
2023-04-23T11:11:42.926Z,100376.25
2023-04-23T11:14:14.356Z,100362.28
2023-04-23T11:16:42.020Z,100360.22
2023-04-23T11:19:16.690Z,100353.69
2023-04-23T11:21:54.828Z,100354.72
2023-04-23T11:24:23.815Z,100338.16
2023-04-23T11:26:53.941Z,100351.94
2023-04-23T11:29:26.200Z,100338.09
2023-04-23T11:32:02.570Z,100329.13
2023-04-23T11:34:30.561Z,100335.44
2023-04-23T11:37:00.602Z,100335.69
2023-04-23T11:39:28.501Z,100318.56
2023-04-23T11:41:57.038Z,100327.44
2023-04-23T11:44:24.399Z,100315.44
2023-04-23T11:46:51.727Z,100316.53
2023-04-23T11:49:19.432Z,100302.78
2023-04-23T11:51:47.149Z,100305.28
2023-04-23T11:54:14.864Z,100305.91
2023-04-23T11:56:42.579Z,100300.75
2023-04-23T11:59:09.965Z,100292.75
2023-04-23T12:01:47.620Z,100290.13
2023-04-23T12:04:23.404Z,100283.75
2023-04-23T12:06:52.455Z,100281.09
2023-04-23T12:09:21.880Z,100281.91
2023-04-23T12:11:52.520Z,100284.91
2023-04-23T12:14:28.321Z,100269.66
2023-04-23T12:16:56.579Z,100272.28
2023-04-23T12:19:31.582Z,100276.69
2023-04-23T12:22:03.874Z,100276.09
2023-04-23T12:24:45.397Z,100281.03
2023-04-23T12:27:16.160Z,100275.38
2023-04-23T12:29:43.864Z,100287.19
2023-04-23T12:32:12.223Z,100270.44
2023-04-23T12:34:53.110Z,100269.13
2023-04-23T12:37:28.730Z,100260.53
2023-04-23T12:39:59.309Z,100261.13
2023-04-23T12:42:33.664Z,100254.25
2023-04-23T12:45:09.220Z,100267.19
2023-04-23T12:47:36.987Z,100252.53
2023-04-23T12:50:05.802Z,100251.53
2023-04-23T12:52:33.257Z,100244.38
2023-04-23T12:55:01.439Z,100249.13
2023-04-23T12:57:29.250Z,100240.28
2023-04-23T12:59:56.726Z,100245.63
2023-04-23T13:02:26.034Z,100233.31
2023-04-23T13:04:59.745Z,100220.50
2023-04-23T13:07:27.508Z,100226.03
2023-04-23T13:09:55.135Z,100222.97
2023-04-23T13:12:23.123Z,100218.28
2023-04-23T13:14:50.522Z,100217.19
2023-04-23T13:17:18.451Z,100220.59
2023-04-23T13:19:46.016Z,100210.03
2023-04-23T13:22:13.435Z,100206.56
2023-04-23T13:24:41.311Z,100210.41
2023-04-23T13:27:08.902Z,100203.25
2023-04-23T13:29:36.941Z,100196.34
2023-04-23T13:32:04.609Z,100196.44
2023-04-23T13:34:34.054Z,100188.31
2023-04-23T13:37:05.658Z,100184.16
2023-04-23T13:39:33.246Z,100179.94
2023-04-23T13:42:08.871Z,100186.59
2023-04-23T13:44:37.225Z,100186.38
2023-04-23T13:47:04.794Z,100176.88
2023-04-23T13:49:32.577Z,100175.69
2023-04-23T13:52:04.310Z,100177.38
2023-04-23T13:54:32.080Z,100179.97
2023-04-23T13:57:00.474Z,100174.81
2023-04-23T13:59:28.362Z,100179.25
2023-04-23T14:01:55.769Z,100176.88
2023-04-23T14:04:24.334Z,100167.41
2023-04-23T14:06:51.919Z,100153.63
2023-04-23T14:09:19.471Z,100165.41
2023-04-23T14:11:46.918Z,100167.19
2023-04-23T14:14:14.653Z,100158.44
2023-04-23T14:16:42.612Z,100155.09
2023-04-23T14:19:10.111Z,100139.09
2023-04-23T14:21:38.048Z,100155.94
2023-04-23T14:24:16.861Z,100154.88
2023-04-23T14:26:49.432Z,100143.88
2023-04-23T14:29:29.826Z,100158.75
2023-04-23T14:31:57.413Z,100146.56
2023-04-23T14:34:24.813Z,100154.09
2023-04-23T14:36:53.373Z,100147.34
2023-04-23T14:39:26.396Z,100142.78
2023-04-23T14:41:53.782Z,100121.13
2023-04-23T14:44:26.514Z,100142.66
2023-04-23T14:46:53.986Z,100133.13
2023-04-23T14:49:22.041Z,100141.53
2023-04-23T14:51:51.033Z,100138.06
2023-04-23T14:54:18.776Z,100134.59
2023-04-23T14:56:46.644Z,100116.66
2023-04-23T14:59:19.015Z,100112.13
2023-04-23T15:01:46.757Z,100130.94
2023-04-23T15:04:20.345Z,100125.59
2023-04-23T15:06:48.007Z,100129.72
2023-04-23T15:09:15.811Z,100108.34
2023-04-23T15:11:43.477Z,100129.84
2023-04-23T15:14:36.656Z,100121.81
2023-04-23T15:17:04.290Z,100114.63
2023-04-23T15:19:32.941Z,100116.72
2023-04-23T15:22:00.341Z,100113.94
2023-04-23T15:24:27.840Z,100104.13
2023-04-23T15:26:55.326Z,100120.63
2023-04-23T15:29:24.505Z,100118.66
2023-04-23T15:31:58.210Z,100127.13
2023-04-23T15:34:30.144Z,100120.34
2023-04-23T15:37:16.485Z,100125.16
2023-04-23T15:39:44.007Z,100108.91
2023-04-23T15:42:15.354Z,100109.66
2023-04-23T15:44:48.468Z,100116.16
2023-04-23T15:47:16.968Z,100117.88
2023-04-23T15:49:49.719Z,100112.59
2023-04-23T15:52:23.315Z,100111.75
2023-04-23T15:54:53.680Z,100114.84
2023-04-23T15:57:21.480Z,100114.56
2023-04-23T15:59:49.535Z,100104.47
2023-04-23T16:02:18.076Z,100105.72
2023-04-23T16:04:46.177Z,100099.44
2023-04-23T16:07:13.678Z,100092.06
2023-04-23T16:09:41.285Z,100086.13
2023-04-23T16:12:08.965Z,100090.44
2023-04-23T16:14:37.564Z,100085.16
2023-04-23T16:17:04.868Z,100084.66
2023-04-23T16:19:32.230Z,100083.78
2023-04-23T16:21:59.679Z,100075.94
2023-04-23T16:24:27.005Z,100071.72
2023-04-23T16:26:54.782Z,100069.25
2023-04-23T16:29:23.042Z,100071.50
2023-04-23T16:31:50.698Z,100067.28
2023-04-23T16:34:18.001Z,100065.59
2023-04-23T16:36:45.458Z,100063.25
2023-04-23T16:39:12.744Z,100067.19
2023-04-23T16:41:40.114Z,100052.66
2023-04-23T16:44:07.525Z,100059.44
2023-04-23T16:46:34.954Z,100051.91
2023-04-23T16:49:02.469Z,100053.75
2023-04-23T16:51:29.930Z,100046.25
2023-04-23T16:53:57.347Z,100046.50
2023-04-23T16:56:24.779Z,100052.78
2023-04-23T16:58:52.173Z,100045.16
2023-04-23T17:01:19.530Z,100042.06
2023-04-23T17:03:47.103Z,100035.56
2023-04-23T17:06:27.279Z,100036.41
2023-04-23T17:08:55.493Z,100036.06
2023-04-23T17:11:23.122Z,100025.34
2023-04-23T17:13:54.838Z,100028.28
2023-04-23T17:16:22.914Z,100027.06
2023-04-23T17:18:50.265Z,100017.84
2023-04-23T17:21:17.725Z,100015.63
2023-04-23T17:23:45.760Z,100010.09
2023-04-23T17:26:13.702Z,100010.22
2023-04-23T17:28:41.159Z,100011.22
2023-04-23T17:31:09.044Z,100016.00
2023-04-23T17:33:36.443Z,100014.78
2023-04-23T17:36:04.437Z,100013.81
2023-04-23T17:38:31.871Z,100008.41
2023-04-23T17:40:59.505Z,100008.41
2023-04-23T17:43:27.364Z,100002.91
2023-04-23T17:45:54.786Z,99998.63
2023-04-23T17:48:23.065Z,99999.13
2023-04-23T17:50:50.654Z,100000.72
2023-04-23T17:53:18.234Z,99987.66
2023-04-23T17:55:45.571Z,99979.91
2023-04-23T17:58:12.985Z,99985.91
2023-04-23T18:00:42.428Z,99978.78
2023-04-23T18:03:11.689Z,99975.97
2023-04-23T18:05:39.279Z,99980.00
2023-04-23T18:08:07.548Z,99985.78
2023-04-23T18:10:35.095Z,99975.19
2023-04-23T18:13:09.088Z,99982.56
2023-04-23T18:15:36.500Z,99987.19
2023-04-23T18:18:04.313Z,99991.06
2023-04-23T18:20:33.160Z,99993.94
2023-04-23T18:23:01.018Z,99997.91
2023-04-23T18:25:28.502Z,99997.97
2023-04-23T18:27:56.121Z,100001.19
2023-04-23T18:30:25.459Z,100003.03
2023-04-23T18:33:29.203Z,99999.97
2023-04-23T18:35:59.425Z,99998.50
2023-04-23T18:38:37.406Z,100005.50
2023-04-23T18:41:06.257Z,100009.25
2023-04-23T18:43:34.361Z,100008.09
2023-04-23T18:46:03.145Z,100018.09
2023-04-23T18:48:33.633Z,100007.28
2023-04-23T18:51:13.264Z,100007.66
2023-04-23T18:53:40.929Z,100010.03
2023-04-23T18:56:08.472Z,100002.91
2023-04-23T18:58:35.858Z,100004.84
2023-04-23T19:01:03.413Z,100008.44
2023-04-23T19:03:31.742Z,100004.56
2023-04-23T19:06:00.521Z,99994.09
2023-04-23T19:08:30.733Z,99998.84
2023-04-23T19:10:58.782Z,99997.97
2023-04-23T19:13:26.670Z,99995.47
2023-04-23T19:15:54.302Z,99994.59
2023-04-23T19:18:21.939Z,100000.78
2023-04-23T19:20:49.504Z,99990.72
2023-04-23T19:23:17.005Z,99999.78
2023-04-23T19:25:44.474Z,100001.00
2023-04-23T19:28:11.992Z,99991.31
2023-04-23T19:30:39.511Z,99999.72
2023-04-23T19:33:07.073Z,99978.56
2023-04-23T19:35:34.596Z,99998.53
2023-04-23T19:38:02.276Z,99993.34
2023-04-23T19:40:32.361Z,100003.06
2023-04-23T19:42:59.847Z,100012.03
2023-04-23T19:45:27.262Z,99995.41
2023-04-23T19:47:54.761Z,99982.91
2023-04-23T19:50:22.742Z,99984.22
2023-04-23T19:52:50.456Z,99996.47
2023-04-23T19:55:22.578Z,99998.84
2023-04-23T19:57:50.027Z,99992.69
2023-04-23T20:00:18.263Z,99996.25
2023-04-23T20:02:46.234Z,99992.59
2023-04-23T20:05:13.823Z,99982.69
2023-04-23T20:07:41.271Z,99998.63
2023-04-23T20:10:09.128Z,99998.63
2023-04-23T20:12:36.702Z,99985.47
2023-04-23T20:15:04.563Z,99987.53
2023-04-23T20:17:32.874Z,99987.31
2023-04-23T20:20:01.972Z,99979.34
2023-04-23T20:22:30.070Z,99981.06
2023-04-23T20:24:58.106Z,99978.91
2023-04-23T20:27:29.219Z,99993.56
2023-04-23T20:29:57.238Z,99980.97
2023-04-23T20:32:24.676Z,99969.59
2023-04-23T20:34:52.793Z,99977.16
2023-04-23T20:37:21.633Z,99970.81
2023-04-23T20:39:50.055Z,99949.59
2023-04-23T20:42:17.635Z,99962.84
2023-04-23T20:44:49.002Z,99962.50
2023-04-23T20:47:16.507Z,99954.84
2023-04-23T20:49:44.142Z,99955.31
2023-04-23T20:52:13.490Z,99967.25
2023-04-23T20:54:41.535Z,99973.63
2023-04-23T20:57:08.991Z,99969.84
2023-04-23T20:59:36.350Z,99960.25
2023-04-23T21:02:03.781Z,99979.75
2023-04-23T21:04:31.329Z,99952.38
2023-04-23T21:06:58.958Z,99947.44
2023-04-23T21:09:26.383Z,99973.22
2023-04-23T21:11:54.401Z,99952.59
2023-04-23T21:14:21.919Z,99957.03
2023-04-23T21:16:49.475Z,99961.00
2023-04-23T21:19:17.055Z,99961.19
2023-04-23T21:21:44.416Z,99974.66
2023-04-23T21:24:11.808Z,99972.56
2023-04-23T21:26:39.200Z,99982.00
2023-04-23T21:29:06.576Z,99983.84
2023-04-23T21:31:51.309Z,99978.44
2023-04-23T21:34:19.641Z,99989.22
2023-04-23T21:36:47.230Z,99979.00
2023-04-23T21:39:14.734Z,99982.22
2023-04-23T21:41:42.223Z,99989.38
2023-04-23T21:44:09.691Z,99993.78
2023-04-23T21:46:37.068Z,99970.06
2023-04-23T21:49:04.920Z,99993.56
2023-04-23T21:51:37.019Z,99987.09
2023-04-23T21:54:05.894Z,99977.38
2023-04-23T21:56:34.156Z,99984.81
2023-04-23T21:59:02.110Z,99990.38
2023-04-23T22:01:29.751Z,99987.69
2023-04-23T22:03:58.241Z,99982.94
2023-04-23T22:06:25.824Z,99986.59
2023-04-23T22:08:54.726Z,99985.72
2023-04-23T22:11:22.589Z,99967.50
2023-04-23T22:13:50.035Z,99971.47
2023-04-23T22:16:27.407Z,99960.56
2023-04-23T22:18:57.302Z,99967.72
2023-04-23T22:21:24.722Z,99977.53
2023-04-23T22:23:52.083Z,99964.69
2023-04-23T22:26:19.734Z,99955.31
2023-04-23T22:28:47.443Z,99950.91
2023-04-23T22:31:14.895Z,99947.47
2023-04-23T22:33:42.257Z,99940.56
2023-04-23T22:36:09.685Z,99950.91
2023-04-23T22:38:37.222Z,99934.22
2023-04-23T22:41:04.645Z,99935.50
2023-04-23T22:43:32.169Z,99940.16
2023-04-23T22:45:59.688Z,99947.06
2023-04-23T22:48:27.989Z,99939.28
2023-04-23T22:50:55.396Z,99930.31
2023-04-23T22:53:22.873Z,99922.34
2023-04-23T22:55:50.641Z,99919.44
2023-04-23T22:58:18.018Z,99919.09
2023-04-23T23:00:45.470Z,99927.97
2023-04-23T23:03:13.054Z,99929.63
2023-04-23T23:05:40.546Z,99917.59
2023-04-23T23:08:07.947Z,99925.81
2023-04-23T23:10:35.616Z,99915.44
2023-04-23T23:13:03.037Z,99910.06
2023-04-23T23:15:30.503Z,99902.22
2023-04-23T23:17:57.976Z,99904.41
2023-04-23T23:20:25.648Z,99899.31
2023-04-23T23:22:53.241Z,99899.56
2023-04-23T23:25:20.679Z,99898.06
2023-04-23T23:27:48.106Z,99896.84
2023-04-23T23:30:15.822Z,99886.94
2023-04-23T23:32:43.351Z,99881.78
2023-04-23T23:35:10.787Z,99888.09
2023-04-23T23:37:38.219Z,99886.88
2023-04-23T23:40:06.315Z,99884.06
2023-04-23T23:42:33.772Z,99877.16
2023-04-23T23:45:01.143Z,99865.03
2023-04-23T23:47:28.571Z,99880.75
2023-04-23T23:49:56.040Z,99867.59
2023-04-23T23:52:23.393Z,99857.50
2023-04-23T23:54:51.301Z,99855.22
2023-04-23T23:57:18.698Z,99852.94
2023-04-23T23:59:47.047Z,99853.47
